createdAt,value
2018-06-05T00:01:36.724Z,82.26
2018-06-05T00:04:06.192Z,81.51
2018-06-05T00:06:35.336Z,81.28
2018-06-05T00:09:04.599Z,81.15
2018-06-05T00:11:33.752Z,81.29
2018-06-05T00:14:03.095Z,81.93
2018-06-05T00:16:32.303Z,80.94
2018-06-05T00:19:01.677Z,81.21
2018-06-05T00:21:31.133Z,80.79
2018-06-05T00:24:00.525Z,81.89
2018-06-05T00:26:29.765Z,81.47
2018-06-05T00:28:59.027Z,82.06
2018-06-05T00:31:28.303Z,82.45
2018-06-05T00:33:57.568Z,82.17
2018-06-05T00:36:26.792Z,82.14
2018-06-05T00:38:56.133Z,82.30
2018-06-05T00:41:25.397Z,82.25
2018-06-05T00:43:54.775Z,82.61
2018-06-05T00:46:23.958Z,83.30
2018-06-05T00:48:53.336Z,84.12
2018-06-05T00:51:33.371Z,83.89
2018-06-05T00:54:02.650Z,83.82
2018-06-05T00:56:31.927Z,83.14
2018-06-05T00:59:01.199Z,83.09
2018-06-05T01:01:30.408Z,83.63
2018-06-05T01:03:59.595Z,82.75
2018-06-05T01:06:28.876Z,83.25
2018-06-05T01:08:58.152Z,82.68
2018-06-05T01:11:27.419Z,81.97
2018-06-05T01:13:56.592Z,82.61
2018-06-05T01:16:25.869Z,82.98
2018-06-05T01:18:55.104Z,83.81
2018-06-05T01:21:24.512Z,84.64
2018-06-05T01:23:53.862Z,84.10
2018-06-05T01:26:23.157Z,84.82
2018-06-05T01:28:52.389Z,85.23
2018-06-05T01:31:21.616Z,83.82
2018-06-05T01:33:50.928Z,83.16
2018-06-05T01:36:20.269Z,83.16
2018-06-05T01:38:49.527Z,83.63
2018-06-05T01:41:18.979Z,83.84
2018-06-05T01:43:48.096Z,83.19
2018-06-05T01:46:17.181Z,83.71
2018-06-05T01:48:46.531Z,84.40
2018-06-05T01:51:15.799Z,84.68
2018-06-05T01:53:45.037Z,84.24
2018-06-05T01:56:14.207Z,83.98
2018-06-05T01:58:43.478Z,85.17
2018-06-05T02:01:12.746Z,84.43
2018-06-05T02:03:42.080Z,85.85
2018-06-05T02:06:11.451Z,85.65
2018-06-05T02:08:41.008Z,86.97
2018-06-05T02:11:10.246Z,86.14
2018-06-05T02:13:39.463Z,85.80
2018-06-05T02:16:08.748Z,85.51
2018-06-05T02:18:38.012Z,85.09
2018-06-05T02:21:07.357Z,86.41
2018-06-05T02:23:36.613Z,86.35
2018-06-05T02:26:05.836Z,86.87
2018-06-05T02:28:35.172Z,87.25
2018-06-05T02:31:04.427Z,87.11
2018-06-05T02:33:33.715Z,88.09
2018-06-05T02:36:03.077Z,87.98
2018-06-05T02:38:32.504Z,88.48
2018-06-05T02:41:01.837Z,88.38
2018-06-05T02:43:31.047Z,88.73
2018-06-05T02:46:00.281Z,88.47
2018-06-05T02:48:29.503Z,88.75
2018-06-05T02:50:58.637Z,87.96
2018-06-05T02:53:27.896Z,89.05
2018-06-05T02:55:57.179Z,88.98
2018-06-05T02:58:26.448Z,88.48
2018-06-05T03:00:55.718Z,88.79
2018-06-05T03:03:24.992Z,88.52
2018-06-05T03:05:54.313Z,87.87
2018-06-05T03:08:23.687Z,87.47
2018-06-05T03:10:53.053Z,87.71
2018-06-05T03:13:22.557Z,87.56
2018-06-05T03:15:51.873Z,87.70
2018-06-05T03:18:21.188Z,87.74
2018-06-05T03:20:50.464Z,87.90
2018-06-05T03:23:19.724Z,88.76
2018-06-05T03:25:49.021Z,88.46
2018-06-05T03:28:18.328Z,88.29
2018-06-05T03:30:47.811Z,87.76
2018-06-05T03:33:17.086Z,87.44
2018-06-05T03:35:46.416Z,88.07
2018-06-05T03:38:15.740Z,87.35
2018-06-05T03:40:45.013Z,87.44
2018-06-05T03:43:14.088Z,86.84
2018-06-05T03:45:43.448Z,87.47
2018-06-05T03:48:12.778Z,87.12
2018-06-05T03:50:42.101Z,86.81
2018-06-05T03:53:11.365Z,86.99
2018-06-05T03:55:40.461Z,86.53
2018-06-05T03:58:09.724Z,86.35
2018-06-05T04:00:39.053Z,86.65
2018-06-05T04:03:08.365Z,86.03
2018-06-05T04:05:37.677Z,86.53
2018-06-05T04:08:06.792Z,85.08
2018-06-05T04:10:35.984Z,85.45
2018-06-05T04:13:05.272Z,85.38
2018-06-05T04:15:34.528Z,85.58
2018-06-05T04:18:03.765Z,85.20
2018-06-05T04:20:32.980Z,85.34
2018-06-05T04:23:02.326Z,84.08
2018-06-05T04:25:31.524Z,82.21
2018-06-05T04:28:00.750Z,81.34
2018-06-05T04:30:30.089Z,81.61
2018-06-05T04:32:59.360Z,81.32
2018-06-05T04:35:28.623Z,81.42
2018-06-05T04:37:57.990Z,80.85
2018-06-05T04:40:27.380Z,81.07
2018-06-05T04:42:56.745Z,80.73
2018-06-05T04:45:25.916Z,80.25
2018-06-05T04:47:55.147Z,79.81
2018-06-05T04:50:24.477Z,79.58
2018-06-05T04:52:53.812Z,79.68
2018-06-05T04:55:23.000Z,79.26
2018-06-05T04:57:52.336Z,78.99
2018-06-05T05:00:21.356Z,78.50
2018-06-05T05:02:50.740Z,77.64
2018-06-05T05:05:20.132Z,77.45
2018-06-05T05:07:49.249Z,77.11
2018-06-05T05:10:18.577Z,76.21
2018-06-05T05:12:47.867Z,75.67
2018-06-05T05:15:17.381Z,75.72
2018-06-05T05:17:46.692Z,74.80
2018-06-05T05:20:16.050Z,72.62
2018-06-05T05:22:45.436Z,71.97
2018-06-05T05:25:14.700Z,71.61
2018-06-05T05:27:44.049Z,71.08
2018-06-05T05:30:13.244Z,70.29
2018-06-05T05:32:42.622Z,70.29
2018-06-05T05:35:11.656Z,69.10
2018-06-05T05:37:41.024Z,68.96
2018-06-05T05:40:10.352Z,68.41
2018-06-05T05:42:39.667Z,68.48
2018-06-05T05:45:09.000Z,67.76
2018-06-05T05:47:38.293Z,67.65
2018-06-05T05:50:08.664Z,67.10
2018-06-05T05:52:37.932Z,66.28
2018-06-05T05:55:07.200Z,65.75
2018-06-05T05:57:36.424Z,65.00
2018-06-05T06:00:05.926Z,65.47
2018-06-05T06:02:35.320Z,66.08
2018-06-05T06:05:04.841Z,66.33
2018-06-05T06:07:34.332Z,66.32
2018-06-05T06:10:03.696Z,65.46
2018-06-05T06:12:33.051Z,65.59
2018-06-05T06:15:02.388Z,64.59
2018-06-05T06:17:31.769Z,65.47
2018-06-05T06:20:01.198Z,64.29
2018-06-05T06:22:30.527Z,64.05
2018-06-05T06:24:59.901Z,63.56
2018-06-05T06:27:29.109Z,61.87
2018-06-05T06:29:58.381Z,61.62
2018-06-05T06:32:27.760Z,62.36
2018-06-05T06:34:57.067Z,60.23
2018-06-05T06:37:26.313Z,60.80
2018-06-05T06:39:55.527Z,61.50
2018-06-05T06:42:24.802Z,60.81
2018-06-05T06:44:54.067Z,60.64
2018-06-05T06:47:23.440Z,59.87
2018-06-05T06:49:52.692Z,59.66
2018-06-05T06:52:22.092Z,59.59
2018-06-05T06:54:51.429Z,59.05
2018-06-05T06:57:20.508Z,60.51
2018-06-05T06:59:49.920Z,59.89
2018-06-05T07:02:19.135Z,59.76
2018-06-05T07:04:48.363Z,60.34
2018-06-05T07:07:17.599Z,56.61
2018-06-05T07:09:46.904Z,55.81
2018-06-05T07:12:16.943Z,54.55
2018-06-05T07:14:46.309Z,53.37
2018-06-05T07:17:15.792Z,54.83
2018-06-05T07:19:45.108Z,55.12
2018-06-05T07:22:14.401Z,54.78
2018-06-05T07:24:43.820Z,54.43
2018-06-05T07:27:12.995Z,55.57
2018-06-05T07:29:42.128Z,56.14
2018-06-05T07:32:11.327Z,56.49
2018-06-05T07:34:40.612Z,54.15
2018-06-05T07:37:09.868Z,53.09
2018-06-05T07:39:39.147Z,52.57
2018-06-05T07:42:08.424Z,52.06
2018-06-05T07:44:37.645Z,52.75
2018-06-05T07:47:07.085Z,50.91
2018-06-05T07:49:36.293Z,50.92
2018-06-05T07:52:05.724Z,52.04
2018-06-05T07:54:35.095Z,51.13
2018-06-05T07:57:04.425Z,50.17
2018-06-05T07:59:33.748Z,51.49
2018-06-05T08:02:03.060Z,51.03
2018-06-05T08:04:32.384Z,52.18
2018-06-05T08:07:01.663Z,50.88
2018-06-05T08:09:30.880Z,50.89
2018-06-05T08:12:00.161Z,52.71
2018-06-05T08:14:29.490Z,52.53
2018-06-05T08:16:58.656Z,53.02
2018-06-05T08:19:27.933Z,49.54
2018-06-05T08:21:57.251Z,48.61
2018-06-05T08:24:26.423Z,47.33
2018-06-05T08:26:55.745Z,49.49
2018-06-05T08:29:25.094Z,47.43
2018-06-05T08:31:54.296Z,49.27
2018-06-05T08:34:23.624Z,48.84
2018-06-05T08:36:52.996Z,48.63
2018-06-05T08:39:22.369Z,48.94
2018-06-05T08:41:51.687Z,47.78
2018-06-05T08:44:21.125Z,47.81
2018-06-05T08:46:50.337Z,47.26
2018-06-05T08:49:19.668Z,46.94
2018-06-05T08:51:48.996Z,46.24
2018-06-05T08:54:18.250Z,46.36
2018-06-05T08:56:47.515Z,44.89
2018-06-05T08:59:16.812Z,43.29
2018-06-05T09:01:46.131Z,41.78
2018-06-05T09:04:15.582Z,42.73
2018-06-05T09:06:44.884Z,45.76
2018-06-05T09:09:14.373Z,45.74
2018-06-05T09:11:43.672Z,46.34
2018-06-05T09:14:13.067Z,47.03
2018-06-05T09:16:42.442Z,47.03
2018-06-05T09:19:11.868Z,44.67
2018-06-05T09:21:41.232Z,43.56
2018-06-05T09:24:10.484Z,43.17
2018-06-05T09:26:39.792Z,46.82
2018-06-05T09:29:09.205Z,42.40
2018-06-05T09:31:38.690Z,40.75
2018-06-05T09:34:08.008Z,41.77
2018-06-05T09:36:37.489Z,44.07
2018-06-05T09:39:09.025Z,46.58
2018-06-05T09:41:38.297Z,47.05
2018-06-05T09:44:07.556Z,49.86
2018-06-05T09:46:36.836Z,51.21
2018-06-05T09:49:06.156Z,51.41
2018-06-05T09:51:35.472Z,51.47
2018-06-05T09:54:04.762Z,51.29
2018-06-05T09:56:34.115Z,50.86
2018-06-05T09:59:03.552Z,51.37
2018-06-05T10:01:32.776Z,50.86
2018-06-05T10:04:02.208Z,47.90
2018-06-05T10:06:31.581Z,47.68
2018-06-05T10:09:00.895Z,44.89
2018-06-05T10:11:30.308Z,44.35
2018-06-05T10:13:59.640Z,43.96
2018-06-05T10:16:29.124Z,45.82
2018-06-05T10:18:58.492Z,43.75
2018-06-05T10:21:27.926Z,42.13
2018-06-05T10:23:57.295Z,43.39
2018-06-05T10:26:26.665Z,42.80
2018-06-05T10:28:56.040Z,40.54
2018-06-05T10:31:25.410Z,41.50
2018-06-05T10:33:54.649Z,41.08
2018-06-05T10:36:23.816Z,42.97
2018-06-05T10:38:53.137Z,42.47
2018-06-05T10:41:22.516Z,43.02
2018-06-05T10:43:51.876Z,42.25
2018-06-05T10:46:21.111Z,41.27
2018-06-05T10:48:50.484Z,40.48
2018-06-05T10:51:19.908Z,39.36
2018-06-05T10:53:49.369Z,39.25
2018-06-05T10:56:18.692Z,40.35
2018-06-05T10:58:48.093Z,40.96
2018-06-05T11:01:17.393Z,42.02
2018-06-05T11:03:46.720Z,42.96
2018-06-05T11:06:15.900Z,43.53
2018-06-05T11:08:45.119Z,42.87
2018-06-05T11:11:14.449Z,43.43
2018-06-05T11:13:43.660Z,44.04
2018-06-05T11:16:12.997Z,46.32
2018-06-05T11:18:42.209Z,47.73
2018-06-05T11:21:11.440Z,49.69
2018-06-05T11:23:40.733Z,49.98
2018-06-05T11:26:10.057Z,49.26
2018-06-05T11:28:39.415Z,49.13
2018-06-05T11:31:08.794Z,50.12
2018-06-05T11:33:38.976Z,50.96
2018-06-05T11:36:08.283Z,48.85
2018-06-05T11:38:37.533Z,50.46
2018-06-05T11:41:06.733Z,48.89
2018-06-05T11:43:36.005Z,48.84
2018-06-05T11:46:05.417Z,50.75
2018-06-05T11:48:34.659Z,53.09
2018-06-05T11:51:03.940Z,51.90
2018-06-05T11:53:33.148Z,51.21
2018-06-05T11:56:02.434Z,50.14
2018-06-05T11:58:31.707Z,51.12
2018-06-05T12:01:00.987Z,49.77
2018-06-05T12:03:30.287Z,49.90
2018-06-05T12:05:59.634Z,50.24
2018-06-05T12:08:29.056Z,50.19
2018-06-05T12:10:58.533Z,50.24
2018-06-05T12:13:27.893Z,49.66
2018-06-05T12:15:57.261Z,50.09
2018-06-05T12:18:26.652Z,49.24
2018-06-05T12:20:56.081Z,47.91
2018-06-05T12:23:25.493Z,46.59
2018-06-05T12:25:54.872Z,44.21
2018-06-05T12:28:24.244Z,45.61
2018-06-05T12:30:53.720Z,45.67
2018-06-05T12:33:23.084Z,46.02
2018-06-05T12:35:52.340Z,44.39
2018-06-05T12:38:21.401Z,44.25
2018-06-05T12:40:50.760Z,43.37
2018-06-05T12:43:20.250Z,42.94
2018-06-05T12:45:50.421Z,43.69
2018-06-05T12:48:19.789Z,43.75
2018-06-05T12:50:49.171Z,44.82
2018-06-05T12:53:18.434Z,45.22
2018-06-05T12:55:48.048Z,44.51
2018-06-05T12:58:17.625Z,44.02
2018-06-05T13:00:46.888Z,44.46
2018-06-05T13:03:16.163Z,44.82
2018-06-05T13:05:45.383Z,44.49
2018-06-05T13:08:14.692Z,46.01
2018-06-05T13:10:43.896Z,45.55
2018-06-05T13:13:13.184Z,45.53
2018-06-05T13:15:42.448Z,47.23
2018-06-05T13:18:11.733Z,47.20
2018-06-05T13:20:41.045Z,48.49
2018-06-05T13:23:10.471Z,49.09
2018-06-05T13:25:39.839Z,48.53
2018-06-05T13:28:09.164Z,46.92
2018-06-05T13:30:38.461Z,47.60
2018-06-05T13:33:07.808Z,49.07
2018-06-05T13:35:37.104Z,47.92
2018-06-05T13:38:06.459Z,48.54
2018-06-05T13:40:35.800Z,46.60
2018-06-05T13:43:05.008Z,45.93
2018-06-05T13:45:34.289Z,46.18
2018-06-05T13:48:03.714Z,47.03
2018-06-05T13:50:32.983Z,47.35
2018-06-05T13:53:02.325Z,47.87
2018-06-05T13:55:31.676Z,48.87
2018-06-05T13:58:00.856Z,49.82
2018-06-05T14:00:29.936Z,49.64
2018-06-05T14:02:59.348Z,50.83
2018-06-05T14:05:28.876Z,53.67
2018-06-05T14:07:58.200Z,62.56
2018-06-05T14:10:27.483Z,63.00
2018-06-05T14:12:56.700Z,60.14
2018-06-05T14:15:26.088Z,62.73
2018-06-05T14:17:55.396Z,65.35
2018-06-05T14:20:24.772Z,70.79
2018-06-05T14:22:54.087Z,71.54
2018-06-05T14:25:23.580Z,75.47
2018-06-05T14:27:52.840Z,74.98
2018-06-05T14:30:22.182Z,76.74
2018-06-05T14:32:51.462Z,73.63
2018-06-05T14:35:20.691Z,72.23
2018-06-05T14:37:50.005Z,75.03
2018-06-05T14:40:19.320Z,73.10
2018-06-05T14:42:48.658Z,71.51
2018-06-05T14:45:18.132Z,73.96
2018-06-05T14:47:47.440Z,72.13
2018-06-05T14:50:16.656Z,72.27
2018-06-05T14:52:45.754Z,70.44
2018-06-05T14:55:15.008Z,71.60
2018-06-05T14:57:44.276Z,72.71
2018-06-05T15:00:13.558Z,73.77
2018-06-05T15:02:42.780Z,71.46
2018-06-05T15:05:11.927Z,70.09
2018-06-05T15:07:41.273Z,71.79
2018-06-05T15:10:10.722Z,78.28
2018-06-05T15:12:40.124Z,74.79
2018-06-05T15:15:09.602Z,73.84
2018-06-05T15:17:38.923Z,72.10
2018-06-05T15:20:08.239Z,72.49
2018-06-05T15:22:37.636Z,75.98
2018-06-05T15:25:06.905Z,73.99
2018-06-05T15:27:36.325Z,75.17
2018-06-05T15:30:06.192Z,73.47
2018-06-05T15:32:35.467Z,74.13
2018-06-05T15:35:04.865Z,76.22
2018-06-05T15:37:34.040Z,74.22
2018-06-05T15:40:03.311Z,72.35
2018-06-05T15:42:32.613Z,66.85
2018-06-05T15:45:01.944Z,69.82
2018-06-05T15:47:31.309Z,69.87
2018-06-05T15:50:00.679Z,71.11
2018-06-05T15:52:30.000Z,70.75
2018-06-05T15:54:59.346Z,71.02
2018-06-05T15:57:28.683Z,70.54
2018-06-05T15:59:57.991Z,66.94
2018-06-05T16:02:27.325Z,67.86
2018-06-05T16:04:56.584Z,69.05
2018-06-05T16:07:26.160Z,69.82
2018-06-05T16:09:55.569Z,70.87
2018-06-05T16:12:24.905Z,70.30
2018-06-05T16:14:54.232Z,69.47
2018-06-05T16:17:23.548Z,70.11
2018-06-05T16:19:52.828Z,69.60
2018-06-05T16:22:22.097Z,69.79
2018-06-05T16:24:51.327Z,69.98
2018-06-05T16:27:20.509Z,69.98
2018-06-05T16:29:49.972Z,70.12
2018-06-05T16:32:19.452Z,71.32
2018-06-05T16:34:48.837Z,71.41
2018-06-05T16:37:18.100Z,73.05
2018-06-05T16:39:47.408Z,72.01
2018-06-05T16:42:16.749Z,71.90
2018-06-05T16:44:46.009Z,70.07
2018-06-05T16:47:15.388Z,73.59
2018-06-05T16:49:44.600Z,73.71
2018-06-05T16:52:13.832Z,74.00
2018-06-05T16:54:43.059Z,74.13
2018-06-05T16:57:12.329Z,75.53
2018-06-05T16:59:41.657Z,76.10
2018-06-05T17:02:10.977Z,76.86
2018-06-05T17:04:40.375Z,77.61
2018-06-05T17:07:09.574Z,78.35
2018-06-05T17:09:38.897Z,77.55
2018-06-05T17:12:08.048Z,78.60
2018-06-05T17:14:37.150Z,79.08
2018-06-05T17:17:06.485Z,80.08
2018-06-05T17:19:35.758Z,80.43
2018-06-05T17:22:05.020Z,81.22
2018-06-05T17:24:34.245Z,81.22
2018-06-05T17:27:03.566Z,82.43
2018-06-05T17:29:32.788Z,82.35
2018-06-05T17:32:01.885Z,83.12
2018-06-05T17:34:31.212Z,83.33
2018-06-05T17:37:00.459Z,83.13
2018-06-05T17:39:29.688Z,83.80
2018-06-05T17:41:58.907Z,83.60
2018-06-05T17:44:28.302Z,83.89
2018-06-05T17:46:57.555Z,84.45
2018-06-05T17:49:26.841Z,85.79
2018-06-05T17:51:56.101Z,84.74
2018-06-05T17:54:25.328Z,85.20
2018-06-05T17:56:54.617Z,87.10
2018-06-05T17:59:23.796Z,87.07
2018-06-05T18:01:53.024Z,87.08
2018-06-05T18:04:22.156Z,88.12
2018-06-05T18:06:51.160Z,88.11
2018-06-05T18:09:20.378Z,88.08
2018-06-05T18:11:49.592Z,87.91
2018-06-05T18:14:19.491Z,88.97
2018-06-05T18:16:48.902Z,88.42
2018-06-05T18:19:20.540Z,89.44
2018-06-05T18:21:50.086Z,89.00
2018-06-05T18:24:19.306Z,90.02
2018-06-05T18:26:49.820Z,89.57
2018-06-05T18:29:19.011Z,90.08
2018-06-05T18:31:48.269Z,89.89
2018-06-05T18:34:18.173Z,89.93
2018-06-05T18:36:48.279Z,90.26
2018-06-05T18:39:17.477Z,89.93
2018-06-05T18:41:46.534Z,90.37
2018-06-05T18:44:15.792Z,90.71
2018-06-05T18:46:45.144Z,90.64
2018-06-05T18:49:14.381Z,90.69
2018-06-05T18:51:43.805Z,90.66
2018-06-05T18:54:13.133Z,90.62
2018-06-05T18:56:42.441Z,90.59
2018-06-05T18:59:11.849Z,89.96
2018-06-05T19:01:41.092Z,90.13
2018-06-05T19:04:10.312Z,91.35
2018-06-05T19:06:39.688Z,90.87
2018-06-05T19:09:09.315Z,90.56
2018-06-05T19:11:38.697Z,91.44
2018-06-05T19:14:07.912Z,91.24
2018-06-05T19:16:37.207Z,91.01
2018-06-05T19:19:06.470Z,91.41
2018-06-05T19:21:35.801Z,91.71
2018-06-05T19:24:05.085Z,91.22
2018-06-05T19:26:34.305Z,91.30
2018-06-05T19:29:03.658Z,92.07
2018-06-05T19:31:32.844Z,92.50
2018-06-05T19:34:02.014Z,91.98
2018-06-05T19:36:31.208Z,92.38
2018-06-05T19:39:00.366Z,92.24
2018-06-05T19:41:29.503Z,92.08
2018-06-05T19:43:58.692Z,91.62
2018-06-05T19:46:27.855Z,91.80
2018-06-05T19:48:57.200Z,91.68
2018-06-05T19:51:26.472Z,92.12
2018-06-05T19:53:55.620Z,91.86
2018-06-05T19:56:24.868Z,92.32
2018-06-05T19:58:54.009Z,91.75
2018-06-05T20:01:23.355Z,91.85
2018-06-05T20:03:52.520Z,92.04
2018-06-05T20:06:21.670Z,91.51
2018-06-05T20:08:50.975Z,91.96
2018-06-05T20:11:20.151Z,93.00
2018-06-05T20:13:49.424Z,92.91
2018-06-05T20:16:18.757Z,92.52
2018-06-05T20:18:48.072Z,93.01
2018-06-05T20:21:17.410Z,91.86
2018-06-05T20:23:46.664Z,92.44
2018-06-05T20:26:15.951Z,92.56
2018-06-05T20:28:45.281Z,92.22
2018-06-05T20:31:14.535Z,91.99
2018-06-05T20:33:43.825Z,91.15
2018-06-05T20:36:13.060Z,91.61
2018-06-05T20:38:42.244Z,91.13
2018-06-05T20:41:11.404Z,90.97
2018-06-05T20:43:40.636Z,91.34
2018-06-05T20:46:09.921Z,90.85
2018-06-05T20:48:39.169Z,91.01
2018-06-05T20:51:08.320Z,90.66
2018-06-05T20:53:37.602Z,90.52
2018-06-05T20:56:07.002Z,91.10
2018-06-05T20:58:36.253Z,92.02
2018-06-05T21:01:05.589Z,92.25
2018-06-05T21:03:34.644Z,91.30
2018-06-05T21:06:03.981Z,91.50
2018-06-05T21:08:33.269Z,92.06
2018-06-05T21:11:02.528Z,91.79
2018-06-05T21:13:31.817Z,92.00
2018-06-05T21:16:01.068Z,92.91
2018-06-05T21:18:30.401Z,92.86
2018-06-05T21:20:59.589Z,92.70
2018-06-05T21:23:28.917Z,91.45
2018-06-05T21:25:58.301Z,92.08
2018-06-05T21:28:27.643Z,92.25
2018-06-05T21:30:57.016Z,91.54
2018-06-05T21:33:26.323Z,92.27
2018-06-05T21:35:55.588Z,91.35
2018-06-05T21:38:24.784Z,91.43
2018-06-05T21:40:54.104Z,90.88
2018-06-05T21:43:23.436Z,91.43
2018-06-05T21:45:52.660Z,90.59
2018-06-05T21:48:21.930Z,90.90
2018-06-05T21:50:51.234Z,90.91
2018-06-05T21:53:20.582Z,91.48
2018-06-05T21:55:49.730Z,91.42
2018-06-05T21:58:19.035Z,91.26
2018-06-05T22:00:48.316Z,90.78
2018-06-05T22:03:17.520Z,91.71
2018-06-05T22:05:46.759Z,91.39
2018-06-05T22:08:15.817Z,91.15
2018-06-05T22:10:45.138Z,91.83
2018-06-05T22:13:14.416Z,91.52
2018-06-05T22:15:43.732Z,91.64
2018-06-05T22:18:12.885Z,91.90
2018-06-05T22:20:42.000Z,91.82
2018-06-05T22:23:11.132Z,91.93
2018-06-05T22:25:40.252Z,91.29
2018-06-05T22:28:09.508Z,91.92
2018-06-05T22:30:38.680Z,92.27
2018-06-05T22:33:07.900Z,91.39
2018-06-05T22:35:37.132Z,92.38
2018-06-05T22:38:05.949Z,93.35
2018-06-05T22:40:35.190Z,94.35
2018-06-05T22:43:04.288Z,94.64
2018-06-05T22:45:33.547Z,94.10
2018-06-05T22:48:02.740Z,93.76
2018-06-05T22:50:32.060Z,93.42
2018-06-05T22:53:01.394Z,93.58
2018-06-05T22:55:30.536Z,93.45
2018-06-05T22:57:59.844Z,93.15
2018-06-05T23:00:32.725Z,92.55
2018-06-05T23:03:02.008Z,92.87
2018-06-05T23:05:31.215Z,93.43
2018-06-05T23:08:00.447Z,92.98
2018-06-05T23:10:29.600Z,93.05
2018-06-05T23:12:58.599Z,93.16
2018-06-05T23:15:27.864Z,93.80
2018-06-05T23:17:57.043Z,93.48
2018-06-05T23:20:26.365Z,92.53
2018-06-05T23:22:55.592Z,92.62
2018-06-05T23:25:24.907Z,92.73
2018-06-05T23:27:54.143Z,92.87
2018-06-05T23:30:23.357Z,93.47
2018-06-05T23:32:52.616Z,93.58
2018-06-05T23:35:21.800Z,93.15
2018-06-05T23:37:51.023Z,93.70
2018-06-05T23:40:20.260Z,94.19
2018-06-05T23:42:49.479Z,93.83
2018-06-05T23:45:18.708Z,94.31
2018-06-05T23:47:47.972Z,94.12
2018-06-05T23:50:17.299Z,93.94
2018-06-05T23:52:46.464Z,93.72
2018-06-05T23:55:15.752Z,94.21
2018-06-05T23:57:45.088Z,93.98
